createdAt,value
2016-11-28T04:01:21.639Z,0
2016-11-28T04:01:47.339Z,0
2016-11-28T04:02:13.014Z,0
2016-11-28T04:02:38.610Z,0
2016-11-28T04:03:04.166Z,0
2016-11-28T04:03:30.381Z,0
2016-11-28T04:03:55.935Z,0
2016-11-28T04:04:21.659Z,0
2016-11-28T04:04:47.183Z,0
2016-11-28T04:05:12.748Z,0
2016-11-28T04:05:39.020Z,0
2016-11-28T04:06:05.380Z,0
2016-11-28T04:06:30.936Z,0
2016-11-28T04:06:56.497Z,0
2016-11-28T04:07:22.014Z,0
2016-11-28T04:07:47.689Z,0
2016-11-28T04:08:13.246Z,0
2016-11-28T04:08:38.823Z,0
2016-11-28T04:09:04.389Z,0
2016-11-28T04:09:29.933Z,0
2016-11-28T04:09:55.478Z,0
2016-11-28T04:10:21.028Z,0
2016-11-28T04:10:46.609Z,0
2016-11-28T04:11:12.185Z,0
2016-11-28T04:11:37.710Z,0
2016-11-28T04:12:03.259Z,0
2016-11-28T04:12:28.924Z,0
2016-11-28T04:12:54.471Z,0
2016-11-28T04:13:20.051Z,0
2016-11-28T04:13:45.714Z,0
2016-11-28T04:14:11.284Z,0
2016-11-28T04:14:36.850Z,0
2016-11-28T04:15:02.402Z,0
2016-11-28T04:15:27.966Z,0
2016-11-28T04:15:53.507Z,0
2016-11-28T04:16:19.071Z,0
2016-11-28T04:16:44.642Z,0
2016-11-28T04:17:10.198Z,0
2016-11-28T04:17:35.822Z,0
2016-11-28T04:18:01.572Z,0
2016-11-28T04:18:27.380Z,0
2016-11-28T04:18:53.073Z,0
2016-11-28T04:19:18.620Z,0
2016-11-28T04:19:44.142Z,0
2016-11-28T04:20:09.719Z,0
2016-11-28T04:20:35.249Z,0
2016-11-28T04:21:00.820Z,0
2016-11-28T04:21:26.342Z,0
2016-11-28T04:21:51.895Z,0
2016-11-28T04:22:17.439Z,0
2016-11-28T04:22:43.023Z,0
2016-11-28T04:23:08.572Z,0
2016-11-28T04:23:34.114Z,0
2016-11-28T04:23:59.638Z,0
2016-11-28T04:24:25.178Z,0
2016-11-28T04:24:50.719Z,0
2016-11-28T04:25:16.214Z,0
2016-11-28T04:25:41.760Z,0
2016-11-28T04:26:07.364Z,0
2016-11-28T04:26:32.990Z,0
2016-11-28T04:26:58.508Z,0
2016-11-28T04:27:24.043Z,0
2016-11-28T04:27:49.595Z,0
2016-11-28T04:28:15.102Z,0
2016-11-28T04:28:40.732Z,0
2016-11-28T04:29:06.301Z,0
2016-11-28T04:29:31.819Z,0
2016-11-28T04:29:57.341Z,0
2016-11-28T04:30:22.865Z,0
2016-11-28T04:30:48.407Z,0
2016-11-28T04:31:13.952Z,0
2016-11-28T04:31:39.473Z,0
2016-11-28T04:32:05.049Z,0
2016-11-28T04:32:30.577Z,0
2016-11-28T04:32:56.090Z,0
2016-11-28T04:33:21.613Z,0
2016-11-28T04:33:47.130Z,0
2016-11-28T04:34:12.735Z,0
2016-11-28T04:34:38.259Z,0
2016-11-28T04:35:03.783Z,0
2016-11-28T04:35:29.306Z,0
2016-11-28T04:35:54.905Z,0
2016-11-28T04:36:20.464Z,0
2016-11-28T04:36:46.007Z,0
2016-11-28T04:37:11.524Z,0
2016-11-28T04:37:37.051Z,0
2016-11-28T04:38:02.586Z,0
2016-11-28T04:38:28.110Z,0
2016-11-28T04:38:53.658Z,0
2016-11-28T04:39:19.290Z,0
2016-11-28T04:39:44.867Z,0
2016-11-28T04:40:10.410Z,0
2016-11-28T04:40:35.956Z,0
2016-11-28T04:41:01.484Z,0
2016-11-28T04:41:27.010Z,0
2016-11-28T04:41:52.554Z,0
2016-11-28T04:42:18.054Z,0
2016-11-28T04:42:43.738Z,0
2016-11-28T04:43:09.268Z,0
2016-11-28T04:43:34.811Z,0
2016-11-28T04:44:00.314Z,0
2016-11-28T04:44:25.896Z,0
2016-11-28T04:44:51.440Z,0
2016-11-28T04:45:17.010Z,0
2016-11-28T04:45:42.594Z,0
2016-11-28T04:46:08.128Z,0
2016-11-28T04:46:33.692Z,0
2016-11-28T04:46:59.243Z,0
2016-11-28T04:47:24.802Z,0
2016-11-28T04:47:50.322Z,0
2016-11-28T04:48:15.894Z,0
2016-11-28T04:48:41.446Z,0
2016-11-28T04:49:07.004Z,0
2016-11-28T04:49:32.557Z,0
2016-11-28T04:49:58.121Z,0
2016-11-28T04:50:23.660Z,0
2016-11-28T04:50:58.054Z,0
2016-11-28T04:51:24.053Z,0
2016-11-28T04:51:51.019Z,0
2016-11-28T04:52:19.315Z,0
2016-11-28T04:52:48.441Z,0
2016-11-28T04:53:13.984Z,0
2016-11-28T04:53:39.552Z,0
2016-11-28T04:54:06.022Z,0
2016-11-28T04:54:33.528Z,0
2016-11-28T04:54:59.179Z,0
2016-11-28T04:55:25.648Z,0
2016-11-28T04:55:52.768Z,0
2016-11-28T04:56:21.942Z,0
2016-11-28T09:55:38.495Z,125
2016-11-28T09:56:12.175Z,125
2016-11-28T09:56:45.106Z,120
2016-11-28T09:58:28.487Z,125
2016-11-28T09:59:51.535Z,125
2016-11-28T10:00:25.005Z,125
2016-11-28T10:00:57.231Z,125
2016-11-28T10:02:14.706Z,130
2016-11-28T10:02:48.199Z,130
2016-11-28T10:03:21.588Z,130
2016-11-28T10:03:55.029Z,130
2016-11-28T10:04:28.521Z,130
2016-11-28T10:05:01.556Z,130
2016-11-28T10:06:45.113Z,95
2016-11-28T10:07:18.492Z,90
2016-11-28T10:07:48.375Z,100
2016-11-28T10:10:20.981Z,130
2016-11-28T10:13:42.221Z,130
2016-11-28T10:14:59.114Z,130
2016-11-28T10:15:32.519Z,130
2016-11-28T10:19:00.701Z,135
2016-11-28T10:21:07.335Z,115
2016-11-28T10:22:43.214Z,120
2016-11-28T10:23:16.596Z,125
2016-11-28T10:24:39.604Z,125
2016-11-28T10:25:12.227Z,135
2016-11-28T10:25:45.498Z,135
2016-11-28T10:27:01.885Z,150
2016-11-28T10:27:34.851Z,150
2016-11-28T10:28:51.773Z,155
2016-11-28T10:29:25.226Z,155
2016-11-28T10:29:58.709Z,155
2016-11-28T10:32:11.014Z,155
2016-11-28T10:32:43.690Z,155
2016-11-28T10:33:12.425Z,155
2016-11-28T10:33:46.015Z,155
2016-11-28T10:34:19.414Z,155
2016-11-28T10:34:52.898Z,155
2016-11-28T10:36:22.249Z,160
2016-11-28T10:36:55.757Z,160
2016-11-28T10:39:41.502Z,170
2016-11-28T10:43:03.109Z,180
2016-11-28T10:46:56.241Z,185
2016-11-28T10:49:13.777Z,195
2016-11-28T10:49:46.797Z,195
2016-11-28T10:50:20.070Z,195
2016-11-28T10:50:47.717Z,195
2016-11-28T10:55:22.949Z,200
2016-11-28T10:56:38.863Z,205
2016-11-28T10:58:52.082Z,205
2016-11-28T11:02:19.829Z,205
2016-11-28T11:02:49.955Z,210
2016-11-28T11:04:32.439Z,210
2016-11-28T11:05:05.933Z,210
2016-11-28T11:06:42.168Z,210
2016-11-28T11:08:25.212Z,210
2016-11-28T11:10:06.989Z,200
2016-11-28T11:11:24.263Z,190
2016-11-28T11:11:57.658Z,185
2016-11-28T11:12:30.978Z,185
2016-11-28T11:13:53.826Z,175
2016-11-28T11:18:10.971Z,170
2016-11-28T11:20:28.920Z,175
2016-11-28T11:23:43.943Z,180
2016-11-28T11:24:17.575Z,180
2016-11-28T11:24:50.698Z,170
2016-11-28T11:25:24.208Z,165
2016-11-28T11:30:15.594Z,145
2016-11-28T11:32:48.241Z,135
2016-11-28T11:33:21.695Z,140
2016-11-28T11:33:55.050Z,140
2016-11-28T11:34:28.393Z,140
